Briefing drone pour Le puy-en-velay (LFHP)

Rechercher une autre localisation

Conditions de vol :


Nous sommes le : Mercredi 30 novembre 2022
Il est 20:17 UTC (21:17 LT)

Lever de soleil : 06:35 UTC (07:35 LT)
Coucher de soleil : 16:31 UTC (17:31 LT)

Météo

L'essentiel des conditions de vol

VIGILANCE MÉTÉO FRANCE - Haute-Loire (43)
Pas de vigilances particulieres
METAR de LFHP
LFHP 301900Z AUTO 02004KT 9999 BKN017 OVC039 03/02 Q1017

Date d'émission: 30/11/2022
Heure d'émission: 19:00 UTC
Vent: 020° pour 4 KT (7 km/h)
Visibilité horizontale: > 10 km
Plafond :
- Nuages morcelés à 1700ft (518m)
- Couvert à 3900ft (1189m)
Température: 3 °C
Point de rosée: 2 °C
Humidité: 93%
Pression (QNH): 1017 hPa
Prévision 24h pour Le puy-en-velay
Vent : 22° pour 2 KT (7 km/h)
Temperature Maxi: 3 °C
Temperature Min: 3 °C
Humidité : 87%
Condition : Couvert



Warning: count(): Parameter must be an array or an object that implements Countable in /homepages/6/d509196549/htdocs/droneoxygene/briefing.php on line 743
WEBCAM POUR LE PUY-EN-VELAY

Réglementation

Voler en sécurité

CARTES AERONAUTIQUE 1/500.000
CARTE AZBA (Reseau basse altitude)
CARTES VAC (LFHP)
SUP AIP




Chargement des AIP...
NOTAM (LE PUY-EN-VELAY + Terrain à proximité / FIR )




Chargement des NOTAMS...
CONTACT PREFECTURE 43


Avertissement : Les données mises à disposition sont indicatives. Oxygène Drone ne pourra être tenu responsable de dégâts causés aux biens et aux personnes.